Time;durP1;ratioP1;P1;durP2;ratioP2;P2;SDS_P1;SDS_P2;PMS_P1;PMS_P2;Temp;Humidity;BMP_temperature;BMP_pressure;BME280_temperature;BME280_humidity;BME280_pressure;Samples;Min_cycle;Max_cycle;Signal;HPM_P1;HPM_P2
2023/06/29 00:00:31;;;;;;;3.97;3.67;;;;;;;20.28;54.75;99446.78;4983954;28;20505;-81
2023/06/29 00:02:57;;;;;;;3.53;3.10;;;;;;;20.29;54.74;99435.16;4977639;28;20740;-81
2023/06/29 00:05:22;;;;;;;3.97;3.13;;;;;;;20.28;54.65;99437.00;4984115;28;20983;-81
2023/06/29 00:07:48;;;;;;;3.57;3.27;;;;;;;20.28;54.83;99436.13;4979758;28;20739;-82
2023/06/29 00:10:14;;;;;;;4.87;3.40;;;;;;;20.24;54.84;99432.13;4978824;28;20243;-81
2023/06/29 00:12:40;;;;;;;4.40;3.70;;;;;;;20.15;55.32;99436.63;4957954;28;20496;-81
2023/06/29 00:15:06;;;;;;;4.03;3.47;;;;;;;20.02;55.42;99436.25;4979888;28;20603;-81
2023/06/29 00:17:33;;;;;;;3.50;3.30;;;;;;;19.88;55.88;99437.72;4977713;28;20493;-81
2023/06/29 00:20:00;;;;;;;4.27;2.83;;;;;;;19.76;55.88;99433.66;4977218;28;20491;-81
2023/06/29 00:22:26;;;;;;;3.63;3.33;;;;;;;19.64;56.45;99436.59;4973894;28;20874;-82
2023/06/29 00:24:59;;;;;;;3.60;3.30;;;;;;;19.55;56.76;99434.03;4966558;28;20558;-82
2023/06/29 00:27:24;;;;;;;6.03;3.53;;;;;;;19.42;57.19;99438.00;4977332;28;20340;-81
2023/06/29 00:29:50;;;;;;;3.27;2.97;;;;;;;19.31;57.62;99440.06;4972783;28;20568;-82
2023/06/29 00:32:15;;;;;;;4.70;4.30;;;;;;;19.21;57.54;99434.88;4959813;28;20237;-82
2023/06/29 00:34:44;;;;;;;3.67;3.33;;;;;;;19.18;57.62;99430.69;4970867;28;20250;-82
2023/06/29 00:37:09;;;;;;;4.30;3.90;;;;;;;19.21;57.77;99429.53;4961111;28;20453;-82
2023/06/29 00:39:35;;;;;;;5.53;4.00;;;;;;;19.19;57.53;99424.38;4962050;28;20473;-83
2023/06/29 00:42:02;;;;;;;4.37;3.40;;;;;;;19.17;57.60;99423.72;4960123;28;20687;-81
2023/06/29 00:44:28;;;;;;;5.40;4.27;;;;;;;19.17;57.57;99430.84;4975247;28;20214;-83
2023/06/29 00:46:53;;;;;;;6.73;4.60;;;;;;;19.19;57.68;99424.38;4961558;28;20772;-83
2023/06/29 00:49:20;;;;;;;6.17;3.40;;;;;;;19.26;57.48;99429.09;4979272;28;20451;-81
2023/06/29 00:51:50;;;;;;;5.10;4.30;;;;;;;19.34;57.28;99423.81;4959785;28;20222;-82
2023/06/29 00:54:19;;;;;;;3.80;3.50;;;;;;;19.38;57.15;99430.47;4985001;28;20566;-81
2023/06/29 00:56:48;;;;;;;3.23;2.97;;;;;;;19.40;57.13;99428.47;4974983;28;20461;-81
2023/06/29 00:59:14;;;;;;;4.37;3.30;;;;;;;19.41;56.83;99427.47;4980177;28;20827;-81
2023/06/29 01:01:40;;;;;;;3.73;3.43;;;;;;;19.44;57.02;99424.50;4959717;28;21017;-82
2023/06/29 01:04:17;;;;;;;4.83;3.83;;;;;;;19.47;57.00;99424.19;4977938;28;20472;-83
2023/06/29 01:06:50;;;;;;;5.93;3.83;;;;;;;19.53;57.26;99423.56;4975566;28;20438;-81
2023/06/29 01:09:17;;;;;;;10.33;3.00;;;;;;;19.55;57.20;99418.91;4962448;28;20364;-84
2023/06/29 01:11:43;;;;;;;3.03;2.73;;;;;;;19.57;57.20;99419.56;4977810;28;21943;-81
2023/06/29 01:14:11;;;;;;;3.63;3.33;;;;;;;19.59;57.13;99417.56;4964199;28;20453;-81
2023/06/29 01:16:38;;;;;;;4.40;4.00;;;;;;;19.59;57.10;99417.56;4982703;28;20453;-79
2023/06/29 01:19:08;;;;;;;5.33;3.73;;;;;;;19.59;57.08;99414.91;4971919;28;20546;-78
2023/06/29 01:21:44;;;;;;;3.20;2.90;;;;;;;19.57;57.03;99419.56;4962610;28;20818;-79
2023/06/29 01:24:13;;;;;;;5.17;3.80;;;;;;;19.48;57.15;99417.88;4976318;28;20451;-79
2023/06/29 01:26:40;;;;;;;3.40;3.10;;;;;;;19.34;57.68;99419.31;4979843;28;20793;-79
2023/06/29 01:29:05;;;;;;;3.60;3.30;;;;;;;19.23;57.83;99422.25;4974907;28;20552;-79
2023/06/29 01:31:32;;;;;;;3.30;3.03;;;;;;;19.11;58.18;99418.16;4977609;28;20473;-79
2023/06/29 01:33:58;;;;;;;3.93;3.63;;;;;;;18.97;58.36;99414.25;4976365;28;20476;-81
2023/06/29 01:36:46;;;;;;;4.73;4.43;;;;;;;18.87;58.73;99416.16;4962418;28;20569;-81
2023/06/29 01:39:27;;;;;;;5.40;4.17;;;;;;;18.78;58.94;99412.63;4967937;28;20724;-81
2023/06/29 01:41:54;;;;;;;5.30;3.50;;;;;;;18.68;59.29;99420.66;4965721;28;20445;-79
2023/06/29 01:44:20;;;;;;;3.53;3.23;;;;;;;18.61;59.31;99413.47;4979874;28;20498;-77
2023/06/29 01:46:47;;;;;;;3.30;3.00;;;;;;;18.53;59.94;99415.06;4961100;28;20439;-81
2023/06/29 01:49:13;;;;;;;6.60;4.37;;;;;;;18.47;60.01;99410.34;4973669;28;20455;-82
2023/06/29 01:51:39;;;;;;;4.97;3.60;;;;;;;18.40;60.03;99411.94;4976291;28;20520;-84
2023/06/29 01:54:04;;;;;;;5.03;3.83;;;;;;;18.37;60.14;99406.09;4974499;28;20461;-83
2023/06/29 01:56:31;;;;;;;4.50;4.10;;;;;;;18.36;60.32;99415.88;4975675;28;20398;-83
2023/06/29 01:58:56;;;;;;;4.30;3.90;;;;;;;18.32;60.32;99415.38;4961297;28;20774;-83
2023/06/29 02:01:22;;;;;;;3.70;3.40;;;;;;;18.32;60.38;99418.03;4963059;28;20823;-82
2023/06/29 02:03:48;;;;;;;3.83;3.47;;;;;;;18.31;60.43;99411.03;4967400;28;20572;-84
2023/06/29 02:06:13;;;;;;;4.18;3.78;;;;;;;18.39;60.90;99412.09;4987523;28;20976;-84
2023/06/29 02:08:39;;;;;;;5.03;3.47;;;;;;;18.44;60.48;99415.13;4989433;28;20313;-82
2023/06/29 02:11:06;;;;;;;4.70;4.30;;;;;;;18.52;60.12;99415.19;4959079;28;20224;-83
2023/06/29 02:13:32;;;;;;;5.70;3.90;;;;;;;18.61;60.01;99414.28;4966951;28;20519;-83
2023/06/29 02:15:57;;;;;;;3.97;3.63;;;;;;;18.68;59.63;99415.31;4966232;28;20210;-83
2023/06/29 02:18:23;;;;;;;4.30;3.90;;;;;;;18.75;59.48;99413.75;4978610;28;20423;-81
2023/06/29 02:20:48;;;;;;;5.23;4.50;;;;;;;18.81;59.42;99416.78;4967895;28;20840;-81
2023/06/29 02:23:14;;;;;;;6.20;3.60;;;;;;;18.85;59.17;99418.13;4976975;28;20738;-82
2023/06/29 02:25:39;;;;;;;4.50;4.10;;;;;;;18.89;59.19;99416.84;4976465;28;20223;-82
2023/06/29 02:28:04;;;;;;;3.50;3.20;;;;;;;18.95;58.90;99413.56;4970551;28;20224;-82
2023/06/29 02:30:30;;;;;;;3.90;3.43;;;;;;;19.02;58.86;99409.28;4980194;28;20694;-82
2023/06/29 02:32:56;;;;;;;5.37;3.70;;;;;;;19.07;58.49;99398.19;4959825;28;20205;-81
2023/06/29 02:35:21;;;;;;;4.60;3.83;;;;;;;19.09;58.43;99396.19;4960377;28;20502;-83
2023/06/29 02:37:47;;;;;;;5.70;4.10;;;;;;;19.11;58.46;99405.69;4943099;28;20238;-84
2023/06/29 02:40:12;;;;;;;4.50;3.67;;;;;;;19.11;58.59;99411.00;4963217;28;20767;-84
2023/06/29 02:42:38;;;;;;;4.17;3.77;;;;;;;19.08;58.67;99400.66;4958475;28;20558;-82
2023/06/29 02:45:04;;;;;;;4.47;4.00;;;;;;;19.02;58.66;99404.81;4979313;28;20301;-82
2023/06/29 02:47:29;;;;;;;4.13;3.33;;;;;;;18.99;58.81;99394.47;4962986;28;20294;-84
2023/06/29 02:49:55;;;;;;;9.30;4.00;;;;;;;19.01;58.71;99397.00;4964324;28;20516;-81
2023/06/29 02:52:21;;;;;;;4.10;3.77;;;;;;;19.01;58.94;99397.00;4963355;28;20304;-81
2023/06/29 02:54:49;;;;;;;4.10;3.57;;;;;;;19.01;58.80;99394.31;4962575;28;20466;-81
2023/06/29 02:57:17;;;;;;;4.20;3.90;;;;;;;19.03;58.70;99392.31;4978654;28;20455;-83
2023/06/29 02:59:43;;;;;;;3.70;3.40;;;;;;;19.02;58.49;99394.16;4965112;28;20550;-80
2023/06/29 03:02:09;;;;;;;6.20;4.00;;;;;;;18.98;58.88;99399.94;4975734;28;20524;-83
2023/06/29 03:04:34;;;;;;;3.63;3.33;;;;;;;18.90;59.09;99406.06;4977818;28;20271;-81
2023/06/29 03:07:00;;;;;;;5.50;4.40;;;;;;;18.78;59.21;99401.97;4965076;28;20247;-84
2023/06/29 03:09:25;;;;;;;6.60;4.30;;;;;;;18.66;59.55;99396.03;4962042;28;20282;-83
2023/06/29 03:11:50;;;;;;;6.70;4.50;;;;;;;18.56;59.68;99392.63;4976378;28;20225;-81
2023/06/29 03:14:16;;;;;;;5.00;3.57;;;;;;;18.46;60.17;99403.34;4973605;28;20230;-83
2023/06/29 03:16:42;;;;;;;4.40;4.00;;;;;;;18.39;59.97;99398.78;4977538;28;20546;-84
2023/06/29 03:19:07;;;;;;;4.70;4.30;;;;;;;18.32;60.11;99396.75;4974554;28;20219;-86
2023/06/29 03:21:33;;;;;;;4.47;4.03;;;;;;;18.31;60.19;99395.09;4974040;28;20860;-83
2023/06/29 03:23:58;;;;;;;4.63;4.30;;;;;;;18.30;60.44;99397.88;4983792;28;20464;-82
2023/06/29 03:26:24;;;;;;;3.83;3.47;;;;;;;18.27;60.59;99395.53;4985401;28;20210;-82
2023/06/29 03:28:49;;;;;;;4.60;3.60;;;;;;;18.25;60.58;99397.50;4982557;28;20294;-82
2023/06/29 03:31:15;;;;;;;5.50;4.30;;;;;;;18.24;60.72;99390.53;4952587;28;20479;-82
2023/06/29 03:33:40;;;;;;;4.20;3.77;;;;;;;18.23;60.59;99397.69;4954704;28;20222;-84
2023/06/29 03:36:09;;;;;;;4.50;3.73;;;;;;;18.22;60.49;99390.66;4970708;28;20616;-82
2023/06/29 03:38:35;;;;;;;3.83;3.37;;;;;;;18.24;60.67;99379.91;4975983;28;20231;-84
2023/06/29 03:41:01;;;;;;;4.07;3.67;;;;;;;18.29;60.44;99380.28;4960942;28;20505;-84
2023/06/29 03:43:26;;;;;;;4.60;3.90;;;;;;;18.35;60.23;99380.47;4959602;28;20634;-82
2023/06/29 03:45:51;;;;;;;4.27;3.87;;;;;;;18.40;60.45;99381.88;4954397;28;20531;-82
2023/06/29 03:48:17;;;;;;;6.23;4.00;;;;;;;18.44;60.18;99381.38;4962540;28;20714;-82
2023/06/29 03:50:42;;;;;;;5.33;4.10;;;;;;;18.51;60.19;99384.28;4984404;28;20226;-83
2023/06/29 03:53:08;;;;;;;3.87;3.47;;;;;;;18.57;59.86;99387.16;4982322;28;20214;-81
2023/06/29 03:55:33;;;;;;;4.00;3.60;;;;;;;18.63;59.87;99393.66;4981485;28;20207;-81
2023/06/29 03:57:59;;;;;;;3.97;3.30;;;;;;;18.61;60.14;99387.69;4968467;28;20242;-82
2023/06/29 04:00:25;;;;;;;4.00;3.60;;;;;;;18.56;59.99;99389.97;4968794;28;20214;-81
2023/06/29 04:02:50;;;;;;;6.30;4.20;;;;;;;18.50;59.96;99391.44;4964363;28;20673;-84
2023/06/29 04:05:16;;;;;;;6.40;4.40;;;;;;;18.43;60.26;99390.38;4967816;28;20454;-83
2023/06/29 04:07:41;;;;;;;6.60;4.37;;;;;;;18.39;60.55;99390.81;4968187;28;20208;-83
2023/06/29 04:10:07;;;;;;;5.40;4.07;;;;;;;18.38;60.66;99389.97;4969461;28;20211;-81
2023/06/29 04:12:32;;;;;;;4.90;4.50;;;;;;;18.40;60.43;99388.00;4970183;28;20692;-82
2023/06/29 04:14:58;;;;;;;3.90;3.60;;;;;;;18.42;60.78;99393.19;4967595;28;20211;-81
2023/06/29 04:17:23;;;;;;;6.10;4.13;;;;;;;18.43;60.64;99384.22;4970371;28;20577;-83
2023/06/29 04:19:48;;;;;;;5.27;4.00;;;;;;;18.48;60.41;99374.78;4968046;28;20219;-81
2023/06/29 04:22:14;;;;;;;5.37;3.70;;;;;;;18.55;60.33;99375.84;4969723;28;20685;-82
2023/06/29 04:24:39;;;;;;;4.80;4.40;;;;;;;18.62;60.41;99385.84;4969605;28;20242;-81
2023/06/29 04:27:05;;;;;;;4.87;3.90;;;;;;;18.66;60.00;99388.06;4969592;28;20599;-80
2023/06/29 04:29:30;;;;;;;4.93;4.43;;;;;;;18.70;59.99;99384.09;4966208;28;20234;-83
2023/06/29 04:31:57;;;;;;;5.33;3.93;;;;;;;18.77;59.79;99377.19;4965950;28;20249;-82
2023/06/29 04:34:22;;;;;;;5.20;4.17;;;;;;;18.83;59.73;99375.72;4968064;28;20607;-80
2023/06/29 04:36:47;;;;;;;4.60;4.20;;;;;;;18.96;59.89;99370.00;4965910;28;20490;-82
2023/06/29 04:39:13;;;;;;;4.60;3.97;;;;;;;19.08;59.50;99370.56;4968099;28;20224;-82
2023/06/29 04:41:41;;;;;;;6.50;4.53;;;;;;;19.21;59.00;99368.31;4966983;28;20627;-80
2023/06/29 04:44:10;;;;;;;5.47;4.20;;;;;;;19.38;58.45;99363.88;4950064;28;20470;-80
2023/06/29 04:46:39;;;;;;;3.67;3.30;;;;;;;19.56;58.13;99371.78;4946694;28;20441;-82
2023/06/29 04:49:06;;;;;;;5.43;3.93;;;;;;;19.75;57.51;99368.03;4965063;28;20902;-80
2023/06/29 04:51:35;;;;;;;5.70;4.10;;;;;;;20.04;57.00;99357.78;4966962;28;20546;-82
2023/06/29 04:54:02;;;;;;;4.70;3.53;;;;;;;20.42;55.78;99362.63;4967139;28;20819;-80
2023/06/29 04:56:27;;;;;;;4.30;3.90;;;;;;;20.76;54.54;99349.94;4967146;28;20463;-82
2023/06/29 04:58:52;;;;;;;4.20;3.87;;;;;;;21.06;53.38;99357.38;4978573;28;21025;-82
2023/06/29 05:01:18;;;;;;;3.40;3.10;;;;;;;21.28;52.49;99356.66;4977065;28;20516;-82
2023/06/29 05:03:43;;;;;;;4.10;3.80;;;;;;;21.37;52.33;99358.31;4974221;28;20279;-81
2023/06/29 05:06:09;;;;;;;7.43;3.70;;;;;;;21.39;51.92;99350.97;4949367;28;20203;-81
2023/06/29 05:08:34;;;;;;;3.93;3.47;;;;;;;21.39;51.80;99350.16;4969817;28;20757;-81
2023/06/29 05:10:59;;;;;;;5.40;3.33;;;;;;;21.42;51.34;99347.13;4967852;28;20216;-81
2023/06/29 05:13:25;;;;;;;4.20;3.80;;;;;;;21.65;50.94;99357.84;4971523;28;20686;-81
2023/06/29 05:15:51;;;;;;;3.90;3.60;;;;;;;21.91;50.21;99352.19;4969996;28;20651;-81
2023/06/29 05:18:16;;;;;;;3.97;3.67;;;;;;;22.10;49.66;99348.22;4968691;28;20227;-81
2023/06/29 05:20:42;;;;;;;4.27;3.87;;;;;;;22.18;49.10;99352.69;4972721;28;20532;-81
2023/06/29 05:23:09;;;;;;;5.70;3.63;;;;;;;22.18;49.01;99352.69;4969129;28;20678;-82
2023/06/29 05:25:36;;;;;;;4.10;3.70;;;;;;;22.12;49.43;99356.91;4969148;28;20433;-81
2023/06/29 05:28:01;;;;;;;3.90;3.50;;;;;;;22.14;49.06;99351.38;4970748;28;20460;-81
2023/06/29 05:30:27;;;;;;;4.07;3.67;;;;;;;22.23;48.75;99348.50;4971283;28;20452;-81
2023/06/29 05:32:52;;;;;;;4.77;4.07;;;;;;;22.43;48.74;99345.31;4951519;28;20203;-81
2023/06/29 05:35:18;;;;;;;4.00;3.70;;;;;;;22.59;48.04;99344.34;4970006;28;20561;-81
2023/06/29 05:37:43;;;;;;;4.60;4.20;;;;;;;22.62;48.00;99349.34;4969765;28;20505;-81
2023/06/29 05:40:09;;;;;;;5.00;3.90;;;;;;;22.59;47.98;99349.69;4953490;28;20254;-81
2023/06/29 05:42:35;;;;;;;4.90;3.67;;;;;;;22.49;48.21;99360.66;4966918;28;20264;-82
2023/06/29 05:45:01;;;;;;;5.90;4.07;;;;;;;22.43;48.27;99356.03;4972751;28;20449;-81
2023/06/29 05:47:26;;;;;;;5.07;3.50;;;;;;;22.35;48.14;99361.44;4968221;28;20504;-81
2023/06/29 05:49:52;;;;;;;6.70;4.40;;;;;;;22.31;48.47;99356.47;4971802;28;20378;-81
2023/06/29 05:52:17;;;;;;;3.47;3.20;;;;;;;22.31;48.66;99353.78;4950970;28;20441;-81
2023/06/29 05:54:42;;;;;;;5.60;3.50;;;;;;;22.35;49.03;99361.44;4966671;28;20216;-81
2023/06/29 05:57:08;;;;;;;6.10;3.87;;;;;;;22.34;49.37;99352.59;4967891;28;20238;-81
2023/06/29 05:59:33;;;;;;;4.73;4.33;;;;;;;22.31;49.92;99364.50;4974318;28;20207;-82
2023/06/29 06:01:59;;;;;;;5.00;4.43;;;;;;;22.28;50.07;99364.84;4977045;28;20193;-81
2023/06/29 06:04:24;;;;;;;5.23;3.93;;;;;;;22.29;50.20;99363.81;4963218;28;20208;-81
2023/06/29 06:06:50;;;;;;;4.73;3.90;;;;;;;22.43;50.33;99356.84;4960805;28;21172;-82
2023/06/29 06:09:15;;;;;;;4.87;3.60;;;;;;;22.69;49.79;99371.69;4963090;28;20246;-82
2023/06/29 06:11:41;;;;;;;6.43;3.93;;;;;;;23.01;49.37;99375.09;4958747;28;20724;-81
2023/06/29 06:14:06;;;;;;;4.20;3.27;;;;;;;23.34;48.22;99375.56;4956786;28;20481;-81
2023/06/29 06:16:32;;;;;;;6.20;5.20;;;;;;;23.60;47.58;99373.25;4957174;28;20212;-81
2023/06/29 06:18:57;;;;;;;6.60;4.13;;;;;;;23.72;47.09;99370.09;4959226;28;20269;-81
2023/06/29 06:21:24;;;;;;;6.50;3.70;;;;;;;23.87;46.93;99372.72;4961176;28;20201;-81
2023/06/29 06:23:51;;;;;;;5.73;4.10;;;;;;;24.02;46.78;99363.63;4964761;28;20317;-81
2023/06/29 06:26:16;;;;;;;5.00;4.47;;;;;;;24.10;46.27;99369.88;4959506;28;20951;-82
2023/06/29 06:28:42;;;;;;;7.67;3.80;;;;;;;24.04;46.36;99369.63;4955371;28;20544;-81
2023/06/29 06:31:07;;;;;;;7.23;4.60;;;;;;;23.97;46.00;99365.22;4938784;28;20692;-82
2023/06/29 06:33:33;;;;;;;8.07;4.77;;;;;;;23.95;45.72;99362.72;4957010;28;20706;-82
2023/06/29 06:35:59;;;;;;;5.97;4.73;;;;;;;23.92;45.99;99368.44;4958630;28;20206;-82
2023/06/29 06:38:24;;;;;;;6.20;5.57;;;;;;;23.90;45.92;99367.84;4957023;28;20296;-81
2023/06/29 06:40:51;;;;;;;5.93;5.33;;;;;;;23.94;45.86;99371.78;4960599;28;20447;-82
2023/06/29 06:43:17;;;;;;;5.67;4.17;;;;;;;23.99;45.58;99366.69;4956136;28;20331;-81
2023/06/29 06:45:43;;;;;;;10.60;4.40;;;;;;;24.08;45.61;99368.22;4956986;28;20448;-82
2023/06/29 06:48:09;;;;;;;8.50;4.00;;;;;;;24.17;45.21;99360.88;4959222;28;21019;-82
2023/06/29 06:50:34;;;;;;;3.67;3.37;;;;;;;24.31;44.87;99356.47;4929680;28;20476;-81
2023/06/29 06:53:00;;;;;;;5.83;3.97;;;;;;;24.63;43.72;99355.13;4940640;28;20352;-82
2023/06/29 06:55:26;;;;;;;5.63;3.70;;;;;;;24.85;43.29;99347.84;4960014;28;20208;-82
2023/06/29 06:57:51;;;;;;;5.63;3.80;;;;;;;25.27;42.23;99351.41;4953868;28;20245;-81
2023/06/29 07:00:17;;;;;;;4.90;4.03;;;;;;;25.91;40.73;99352.94;4938671;28;20617;-81
2023/06/29 07:02:43;;;;;;;5.93;3.83;;;;;;;26.58;39.57;99348.50;4957316;28;20464;-81
2023/06/29 07:05:08;;;;;;;4.43;3.70;;;;;;;27.29;38.14;99342.34;4954063;28;20539;-82
2023/06/29 07:07:34;;;;;;;4.27;3.80;;;;;;;27.86;36.61;99336.31;4954611;28;20208;-82
2023/06/29 07:10:00;;;;;;;3.73;3.40;;;;;;;28.37;35.99;99333.47;4955978;28;20242;-82
2023/06/29 07:12:25;;;;;;;3.90;3.40;;;;;;;28.68;35.48;99331.81;4957383;28;20292;-82
2023/06/29 07:14:51;;;;;;;4.77;4.27;;;;;;;28.93;34.73;99323.63;4958224;28;20224;-81
2023/06/29 07:17:17;;;;;;;4.87;4.20;;;;;;;29.19;33.83;99322.56;4956230;28;20753;-82
2023/06/29 07:19:43;;;;;;;7.00;4.50;;;;;;;29.45;33.80;99326.00;4953866;28;20210;-82
2023/06/29 07:22:08;;;;;;;4.43;4.03;;;;;;;29.67;33.36;99329.88;4955953;28;20531;-82
2023/06/29 07:24:34;;;;;;;4.23;3.50;;;;;;;29.99;32.85;99330.47;4959744;28;20214;-82
2023/06/29 07:26:59;;;;;;;4.27;3.80;;;;;;;30.23;32.55;99330.56;4958131;28;20210;-82
2023/06/29 07:29:26;;;;;;;4.47;3.73;;;;;;;30.49;31.88;99323.03;4960203;28;20214;-83
2023/06/29 07:31:52;;;;;;;7.03;3.63;;;;;;;30.69;31.68;99320.81;4957858;28;20221;-82
2023/06/29 07:34:22;;;;;;;6.20;3.53;;;;;;;30.90;31.37;99324.84;4954635;28;20468;-83
2023/06/29 07:36:50;;;;;;;6.07;4.27;;;;;;;31.02;31.14;99320.22;4960657;28;20308;-82
2023/06/29 07:39:16;;;;;;;3.63;3.30;;;;;;;31.16;30.78;99311.81;4960628;28;20468;-82
2023/06/29 07:41:42;;;;;;;4.97;3.20;;;;;;;31.39;30.14;99308.28;4960261;28;20898;-83
2023/06/29 07:44:08;;;;;;;4.80;3.63;;;;;;;31.55;29.98;99309.41;4962456;28;20215;-82
2023/06/29 07:46:34;;;;;;;5.07;3.73;;;;;;;31.73;29.73;99309.19;4955375;28;20563;-82
2023/06/29 07:49:00;;;;;;;3.60;2.80;;;;;;;32.00;29.05;99312.16;4959534;28;20336;-82
2023/06/29 07:51:31;;;;;;;5.87;3.80;;;;;;;32.13;28.76;99305.56;4961491;28;20254;-83
2023/06/29 07:53:57;;;;;;;3.23;2.93;;;;;;;32.12;27.76;99307.47;4956487;28;20221;-82
2023/06/29 07:56:22;;;;;;;3.70;3.40;;;;;;;32.08;27.82;99302.78;4957890;28;20467;-82
2023/06/29 07:58:48;;;;;;;5.47;3.30;;;;;;;32.05;28.31;99300.53;4971242;28;20259;-83
2023/06/29 08:01:13;;;;;;;3.87;3.37;;;;;;;32.07;28.06;99295.69;4956079;28;20446;-83
2023/06/29 08:03:39;;;;;;;3.47;3.03;;;;;;;32.02;28.22;99291.00;4951503;28;20577;-83
2023/06/29 08:06:05;;;;;;;5.03;3.83;;;;;;;32.01;28.58;99304.84;4967603;28;20221;-83
2023/06/29 08:08:30;;;;;;;3.17;2.90;;;;;;;31.95;28.41;99296.59;4970421;28;20679;-83
2023/06/29 08:10:56;;;;;;;3.50;3.20;;;;;;;31.90;28.72;99299.19;4953090;28;20816;-83
2023/06/29 08:13:22;;;;;;;3.70;3.40;;;;;;;31.88;29.02;99297.78;4970805;28;20220;-82
2023/06/29 08:15:48;;;;;;;4.80;2.90;;;;;;;31.60;29.06;99293.22;4971603;28;20236;-83
2023/06/29 08:18:13;;;;;;;3.73;3.40;;;;;;;31.06;29.59;99309.75;4969281;28;21312;-82
2023/06/29 08:20:39;;;;;;;3.63;3.30;;;;;;;30.71;30.02;99297.00;4971535;28;20256;-83
2023/06/29 08:23:05;;;;;;;6.10;3.77;;;;;;;30.74;30.33;99298.44;4970866;28;20225;-82
2023/06/29 08:25:30;;;;;;;3.90;3.60;;;;;;;30.81;30.13;99297.28;4972120;28;20313;-82
2023/06/29 08:27:56;;;;;;;4.43;4.03;;;;;;;30.90;30.12;99299.63;4974171;28;20501;-83
2023/06/29 08:30:22;;;;;;;4.20;3.40;;;;;;;30.97;30.24;99295.69;4970832;28;20228;-82
2023/06/29 08:32:57;;;;;;;4.10;3.37;;;;;;;31.21;29.75;99288.34;4954141;28;20236;-83
2023/06/29 08:35:23;;;;;;;3.73;3.43;;;;;;;31.35;30.12;99291.59;4966764;28;20503;-83
2023/06/29 08:37:48;;;;;;;3.63;3.33;;;;;;;31.25;30.19;99283.28;4967785;28;21112;-83
2023/06/29 08:40:18;;;;;;;6.07;3.90;;;;;;;31.13;30.15;99283.28;4971940;28;20779;-82
2023/06/29 08:42:43;;;;;;;3.90;3.53;;;;;;;31.00;30.92;99278.97;4968435;28;20221;-82
2023/06/29 08:45:09;;;;;;;5.03;3.73;;;;;;;30.71;31.05;99279.94;4973748;28;20494;-83
2023/06/29 08:47:37;;;;;;;3.60;3.30;;;;;;;30.46;31.99;99282.84;4975045;28;20575;-84
2023/06/29 08:50:04;;;;;;;4.10;3.20;;;;;;;30.44;32.18;99274.97;4968447;28;20734;-83
2023/06/29 08:52:33;;;;;;;4.00;3.60;;;;;;;30.47;32.11;99274.50;4968692;28;20821;-82
2023/06/29 08:55:00;;;;;;;3.83;3.43;;;;;;;30.60;31.71;99273.44;4966705;28;20491;-82
2023/06/29 08:57:27;;;;;;;4.03;3.30;;;;;;;30.53;31.56;99276.28;4964837;28;20499;-83
2023/06/29 08:59:53;;;;;;;5.30;3.40;;;;;;;30.51;31.63;99275.66;4958321;28;20839;-83
2023/06/29 09:02:19;;;;;;;4.33;3.70;;;;;;;30.48;31.29;99262.59;4952485;28;20497;-81
2023/06/29 09:04:44;;;;;;;4.53;3.40;;;;;;;30.51;31.61;99258.59;4957707;28;20485;-83
2023/06/29 09:07:10;;;;;;;5.23;3.10;;;;;;;30.49;31.56;99266.97;4954632;28;20322;-82
2023/06/29 09:09:36;;;;;;;5.10;3.53;;;;;;;30.55;31.13;99267.91;4956830;28;20480;-82
2023/06/29 09:12:01;;;;;;;3.93;3.40;;;;;;;30.55;31.12;99266.03;4954497;28;20488;-83
2023/06/29 09:14:32;;;;;;;4.50;3.17;;;;;;;30.57;31.12;99271.19;4955271;28;20572;-82
2023/06/29 09:17:01;;;;;;;3.40;3.10;;;;;;;30.72;30.55;99274.25;4955239;28;20216;-82
2023/06/29 09:19:29;;;;;;;3.40;3.10;;;;;;;30.94;29.83;99265.53;4939883;28;20790;-81
2023/06/29 09:21:55;;;;;;;3.07;2.87;;;;;;;31.14;29.46;99259.72;4955829;28;20478;-82
2023/06/29 09:24:21;;;;;;;4.10;3.70;;;;;;;31.30;29.63;99264.38;4958684;28;20605;-82
2023/06/29 09:26:53;;;;;;;4.03;3.73;;;;;;;31.30;29.64;99261.66;4956183;28;20220;-82
2023/06/29 09:29:19;;;;;;;5.27;2.53;;;;;;;31.31;30.08;99264.13;4954504;28;20766;-82
2023/06/29 09:31:58;;;;;;;6.67;3.63;;;;;;;31.58;29.67;99260.03;4957049;28;20501;-81
2023/06/29 09:34:27;;;;;;;2.73;2.50;;;;;;;31.73;29.17;99263.88;4954265;28;20570;-84
2023/06/29 09:36:53;;;;;;;4.20;3.43;;;;;;;31.74;28.96;99259.25;4936716;28;20911;-81
2023/06/29 09:39:19;;;;;;;3.50;3.20;;;;;;;31.70;28.93;99255.38;4934806;28;20567;-81
2023/06/29 09:42:00;;;;;;;3.47;3.17;;;;;;;31.53;29.49;99252.63;4955031;28;20986;-81
2023/06/29 09:44:26;;;;;;;7.30;3.03;;;;;;;31.46;29.70;99247.34;4957542;28;20501;-81
2023/06/29 09:47:02;;;;;;;3.40;2.90;;;;;;;31.67;29.22;99248.53;4957156;28;20501;-81
2023/06/29 09:49:28;;;;;;;3.50;3.17;;;;;;;31.86;29.07;99245.59;4962331;28;20292;-82
2023/06/29 09:52:02;;;;;;;5.43;3.40;;;;;;;32.11;29.19;99242.53;4972022;28;20764;-82
2023/06/29 09:54:28;;;;;;;4.90;3.80;;;;;;;32.26;28.95;99240.03;4974959;28;20562;-83
2023/06/29 09:56:54;;;;;;;3.33;3.07;;;;;;;32.16;28.49;99242.56;4966794;28;21022;-82
2023/06/29 09:59:19;;;;;;;11.27;3.67;;;;;;;32.18;28.49;99240.44;4953818;28;20259;-82
2023/06/29 10:01:45;;;;;;;4.10;3.17;;;;;;;32.10;28.73;99238.97;4965968;28;20476;-82
2023/06/29 10:04:11;;;;;;;6.10;3.10;;;;;;;32.01;28.49;99234.19;4971143;28;20213;-82
2023/06/29 10:06:46;;;;;;;4.10;3.50;;;;;;;32.00;28.22;99237.97;4972210;28;20848;-82
2023/06/29 10:09:20;;;;;;;5.30;3.20;;;;;;;31.96;28.37;99229.50;4974590;28;20268;-82
2023/06/29 10:11:50;;;;;;;4.00;3.23;;;;;;;31.95;28.28;99231.41;4956705;28;20491;-81
2023/06/29 10:14:15;;;;;;;5.43;3.10;;;;;;;31.96;28.39;99234.94;4974254;28;20520;-82
2023/06/29 10:16:45;;;;;;;3.77;2.73;;;;;;;32.03;28.34;99230.16;4974093;28;20569;-81
2023/06/29 10:19:18;;;;;;;3.37;3.07;;;;;;;32.02;28.27;99233.13;4972247;28;20231;-82
2023/06/29 10:21:44;;;;;;;6.20;2.90;;;;;;;31.94;28.44;99226.19;4954005;28;20565;-82
2023/06/29 10:24:14;;;;;;;4.87;2.63;;;;;;;31.93;28.48;99236.25;4969318;28;21092;-82
2023/06/29 10:26:49;;;;;;;3.03;2.83;;;;;;;31.90;28.14;99234.00;4974070;28;20801;-81
2023/06/29 10:29:14;;;;;;;6.67;3.50;;;;;;;31.94;28.02;99235.16;4979639;28;20558;-83
2023/06/29 10:31:56;;;;;;;3.50;3.03;;;;;;;31.99;27.91;99226.28;4974417;28;20497;-84
2023/06/29 10:34:21;;;;;;;4.70;3.07;;;;;;;32.02;28.20;99228.50;4972396;28;20569;-81
2023/06/29 10:36:54;;;;;;;3.40;3.10;;;;;;;32.08;28.22;99234.84;4956511;28;20458;-83
2023/06/29 10:39:39;;;;;;;5.07;2.60;;;;;;;32.20;27.92;99222.00;4969859;28;20797;-83
2023/06/29 10:42:11;;;;;;;3.20;2.90;;;;;;;32.19;28.02;99220.38;4971978;28;21255;-83
2023/06/29 10:44:37;;;;;;;3.63;3.23;;;;;;;32.17;27.73;99222.50;4972819;28;20482;-82
2023/06/29 10:47:03;;;;;;;3.50;2.77;;;;;;;32.22;27.77;99216.31;4970408;28;20489;-82
2023/06/29 10:49:29;;;;;;;2.83;2.57;;;;;;;32.20;27.28;99215.75;5055545;23;21107;-83
2023/06/29 10:52:05;;;;;;;3.03;2.73;;;;;;;32.16;27.58;99220.84;4934481;28;20223;-83
2023/06/29 10:55:29;;;;;;;6.53;3.00;;;;;;;32.05;27.73;99214.41;4951115;28;20476;-82
2023/06/29 10:58:01;;;;;;;3.23;2.90;;;;;;;32.01;28.00;99215.19;4953641;28;20470;-83
2023/06/29 11:00:27;;;;;;;3.50;3.20;;;;;;;32.06;27.76;99216.09;4947668;28;20956;-83
2023/06/29 11:02:56;;;;;;;3.90;3.60;;;;;;;32.08;27.82;99205.81;4971326;28;20494;-82
2023/06/29 11:05:22;;;;;;;5.20;3.47;;;;;;;32.21;27.83;99204.63;4961245;28;20384;-83
2023/06/29 11:07:52;;;;;;;3.73;3.03;;;;;;;32.40;27.77;99205.16;4965014;28;21070;-83
2023/06/29 11:10:20;;;;;;;3.53;2.80;;;;;;;32.56;27.88;99203.50;4962052;28;21275;-82
2023/06/29 11:12:45;;;;;;;3.53;3.23;;;;;;;32.63;28.05;99206.88;4970944;28;20533;-83
2023/06/29 11:15:13;;;;;;;4.33;3.40;;;;;;;32.65;28.25;99202.03;4967626;28;20655;-83
2023/06/29 11:17:39;;;;;;;5.10;3.20;;;;;;;32.69;28.00;99200.41;4970522;28;20215;-83
2023/06/29 11:20:06;;;;;;;6.00;3.43;;;;;;;32.55;28.06;99213.56;4971011;28;20462;-84
2023/06/29 11:22:36;;;;;;;3.57;3.20;;;;;;;32.43;27.97;99198.41;4971175;28;20485;-83
2023/06/29 11:25:02;;;;;;;4.30;3.20;;;;;;;32.20;28.31;99202.16;4952125;28;20685;-82
2023/06/29 11:27:28;;;;;;;3.60;3.20;;;;;;;32.12;28.42;99203.41;4965598;28;20470;-82
2023/06/29 11:29:54;;;;;;;3.30;2.93;;;;;;;32.16;28.38;99199.09;4967278;28;20497;-83
2023/06/29 11:32:20;;;;;;;5.27;3.70;;;;;;;32.34;28.54;99196.13;4966331;28;20208;-82